Terminal Aerodrome Forecast
Issued by NWS Tulsa, OK

Home | Current Version | Previous Version | Text Only | Print | Product List | Glossary On
Versions: 1 2 3 4 5 6 7 8 9 10 11 12 13 14
000
FTUS44 KTSA 270500
TAFTUL
TAF
KTUL 270540Z 2706/2806 33010KT P6SM OVC015
     FM271000 33014KT P6SM OVC025
     FM271400 34010KT P6SM OVC050
     FM280100 36005KT P6SM BKN250=

USA.gov is the U.S. government's official web portal to all federal, state and local government web resources and services.